Roxton, Texas
Current Conditions -  °F | °C
As of 5:15 AM on Monday 22 Dec 2014 (Local Time) from KPRX Reporting Station
Overcast Overcast  
Wind Chill: 52°   Ceiling: 1600
Heat Index: 52°   Visibility: 10mi
Dew Point: 46°   Wind: 13mph
Humidity: 82%   Direction: 160°SSE
Pressure: 29.65"   Gusts: NA
Location:  33.55°N, 95.73°W
Report Text: KPRX 221115Z 16011KT 10SM BKN016 BKN021 OVC026 11/08 A2965 RMK AO1
Loading
Personal Weather Stations






























Interactive Weather Map New forecast layout! Learn more

10-Day Weather Forecast

Advertisements
Track Severe Weather on mobile